createdAt,value
2024-03-12T00:01:30.768Z,8.00
2024-03-12T00:06:33.338Z,8.00
2024-03-12T00:11:36.328Z,7.80
2024-03-12T00:16:41.978Z,7.70
2024-03-12T00:21:45.014Z,7.70
2024-03-12T00:26:49.000Z,7.60
2024-03-12T00:31:52.576Z,7.80
2024-03-12T00:36:55.068Z,7.80
2024-03-12T00:41:57.744Z,7.90
2024-03-12T00:47:02.675Z,7.80
2024-03-12T00:52:05.452Z,7.80
2024-03-12T00:57:07.961Z,7.90
2024-03-12T01:02:13.818Z,7.70
2024-03-12T01:07:17.646Z,7.90
2024-03-12T01:12:20.066Z,8.00
2024-03-12T01:17:23.786Z,8.10
2024-03-12T01:22:26.282Z,8.00
2024-03-12T01:27:28.734Z,7.90
2024-03-12T01:32:32.060Z,7.90
2024-03-12T01:37:35.372Z,8.00
2024-03-12T01:42:37.861Z,8.20
2024-03-12T01:47:40.332Z,7.90
2024-03-12T01:52:44.795Z,8.00
2024-03-12T01:57:48.471Z,7.70
2024-03-12T02:02:53.886Z,7.50
2024-03-12T02:07:56.505Z,7.80
2024-03-12T02:12:58.984Z,7.70
2024-03-12T02:18:01.662Z,7.60
2024-03-12T02:23:04.168Z,7.80
2024-03-12T02:28:07.503Z,8.00
2024-03-12T02:33:10.093Z,7.90
2024-03-12T02:38:14.577Z,8.00
2024-03-12T02:43:17.499Z,7.90
2024-03-12T02:48:19.974Z,7.70
2024-03-12T02:53:22.681Z,7.70
2024-03-12T02:58:27.333Z,7.80
2024-03-12T03:03:29.998Z,7.90
2024-03-12T03:08:32.682Z,7.60
2024-03-12T03:13:35.314Z,7.60
2024-03-12T03:18:38.355Z,7.60
2024-03-12T03:23:42.894Z,7.50
2024-03-12T03:28:45.909Z,7.70
2024-03-12T03:33:48.784Z,7.60
2024-03-12T03:38:51.737Z,7.60
2024-03-12T03:43:54.219Z,7.60
2024-03-12T03:48:59.026Z,7.50
2024-03-12T03:54:02.525Z,7.50
2024-03-12T03:59:06.983Z,7.60
2024-03-12T04:04:12.745Z,7.60
2024-03-12T04:09:16.430Z,7.70
2024-03-12T04:14:19.611Z,7.90
2024-03-12T04:19:22.225Z,7.90
2024-03-12T04:24:26.166Z,7.80
2024-03-12T04:29:29.383Z,7.70
2024-03-12T04:34:33.601Z,7.80
2024-03-12T04:39:37.280Z,7.80
2024-03-12T04:44:39.816Z,8.10
2024-03-12T04:49:42.296Z,8.00
2024-03-12T04:54:44.717Z,8.10
2024-03-12T04:59:49.054Z,7.70
2024-03-12T05:04:51.465Z,7.60
2024-03-12T05:09:54.140Z,7.60
2024-03-12T05:14:56.685Z,7.60
2024-03-12T05:19:59.223Z,7.60
2024-03-12T05:25:03.201Z,7.50
2024-03-12T05:30:12.103Z,7.60
2024-03-12T05:35:23.585Z,7.60
2024-03-12T05:40:31.186Z,7.70
2024-03-12T05:45:52.329Z,8.10
2024-03-12T05:50:56.872Z,8.10
2024-03-12T05:55:59.457Z,8.20
2024-03-12T06:01:03.863Z,8.30
2024-03-12T06:06:08.737Z,8.30
2024-03-12T06:11:11.272Z,8.40
2024-03-12T06:16:13.809Z,8.30
2024-03-12T06:21:17.514Z,8.90
2024-03-12T06:26:20.514Z,9.30
2024-03-12T06:31:23.840Z,8.90
2024-03-12T06:36:26.425Z,8.50
2024-03-12T06:41:28.899Z,8.40
2024-03-12T06:46:31.380Z,8.40
2024-03-12T06:51:34.010Z,8.40
2024-03-12T06:56:43.730Z,8.50
2024-03-12T07:01:46.811Z,8.40
2024-03-12T07:06:49.317Z,8.50
2024-03-12T07:11:51.845Z,8.80
2024-03-12T07:16:56.179Z,8.90
2024-03-12T07:21:58.712Z,8.90
2024-03-12T07:44:01.054Z,7.90
2024-03-12T07:49:05.029Z,8.30
2024-03-12T07:54:07.893Z,8.40
2024-03-12T07:59:10.446Z,8.70
2024-03-12T08:04:14.538Z,9.00
2024-03-12T08:09:17.046Z,9.30
2024-03-12T08:14:19.857Z,9.70
2024-03-12T08:19:26.626Z,9.80
2024-03-12T08:24:30.617Z,9.80
2024-03-12T08:29:33.216Z,9.80
2024-03-12T08:34:38.063Z,9.60
2024-03-12T08:39:40.932Z,10.40
2024-03-12T08:44:44.535Z,10.50
2024-03-12T08:49:47.199Z,10.30
2024-03-12T08:54:49.676Z,10.30
2024-03-12T08:59:52.239Z,10.30
2024-03-12T09:04:55.188Z,10.30
2024-03-12T09:09:59.881Z,10.30
2024-03-12T09:15:03.573Z,10.20
2024-03-12T09:20:12.594Z,10.30
2024-03-12T09:25:18.265Z,10.30
2024-03-12T09:30:21.895Z,10.30
2024-03-12T09:35:26.063Z,10.80
2024-03-12T09:40:29.575Z,10.90
2024-03-12T09:45:33.018Z,10.90
2024-03-12T09:50:36.882Z,10.80
2024-03-12T09:55:41.335Z,10.80
2024-03-12T10:00:45.270Z,10.90
2024-03-12T10:05:47.968Z,10.80
2024-03-12T10:10:53.515Z,10.90
2024-03-12T10:16:03.994Z,11.00
2024-03-12T10:21:08.310Z,11.30
2024-03-12T10:26:18.371Z,11.50
2024-03-12T10:31:21.537Z,11.60
2024-03-12T10:36:32.523Z,11.60
2024-03-12T10:41:35.427Z,11.70
2024-03-12T10:46:42.637Z,12.00
2024-03-12T10:51:45.839Z,11.90
2024-03-12T10:56:48.944Z,11.80
2024-03-12T11:01:51.520Z,11.90
2024-03-12T11:06:55.352Z,11.70
2024-03-12T11:11:58.083Z,11.50
2024-03-12T11:17:01.714Z,11.60
2024-03-12T11:22:13.346Z,11.60
2024-03-12T11:27:26.250Z,11.40
2024-03-12T11:32:30.767Z,11.50
2024-03-12T11:37:34.268Z,11.60
2024-03-12T11:42:36.721Z,11.70
2024-03-12T11:47:41.462Z,12.00
2024-03-12T11:52:44.447Z,12.20
2024-03-12T11:57:50.481Z,12.20
2024-03-12T12:02:53.411Z,12.20
2024-03-12T12:07:55.913Z,12.30
2024-03-12T12:12:58.811Z,12.20
2024-03-12T12:18:11.483Z,12.10
2024-03-12T12:23:14.443Z,12.30
2024-03-12T12:28:18.269Z,12.50
2024-03-12T12:38:24.988Z,12.60
2024-03-12T12:43:27.544Z,12.50
2024-03-12T12:48:30.041Z,12.60
2024-03-12T12:53:32.537Z,12.60
2024-03-12T12:58:35.145Z,12.60
2024-03-12T13:03:42.390Z,12.70
2024-03-12T13:08:47.167Z,12.60
2024-03-12T13:13:53.447Z,12.60
2024-03-12T13:18:59.839Z,12.80
2024-03-12T13:24:04.766Z,12.90
2024-03-12T13:29:07.325Z,12.60
2024-03-12T13:34:09.883Z,12.60
2024-03-12T13:39:16.195Z,12.70
2024-03-12T13:44:18.931Z,12.70
2024-03-12T13:49:24.332Z,12.80
2024-03-12T13:54:28.471Z,12.90
2024-03-12T13:59:32.090Z,13.30
2024-03-12T14:04:37.169Z,13.50
2024-03-12T14:14:42.930Z,13.70
2024-03-12T14:19:45.387Z,13.60
2024-03-12T14:24:47.899Z,13.50
2024-03-12T14:29:50.460Z,13.70
2024-03-12T14:34:53.803Z,13.60
2024-03-12T14:39:56.315Z,13.40
2024-03-12T14:44:58.890Z,13.30
2024-03-12T14:50:01.439Z,13.50
2024-03-12T14:55:04.742Z,13.50
2024-03-12T15:00:17.740Z,12.60
2024-03-12T15:05:21.686Z,12.00
2024-03-12T15:10:24.622Z,12.00
2024-03-12T15:15:27.597Z,12.20
2024-03-12T15:20:31.167Z,12.30
2024-03-12T15:25:34.254Z,12.30
2024-03-12T15:30:38.334Z,12.50
2024-03-12T15:35:41.404Z,12.90
2024-03-12T15:40:43.856Z,12.60
2024-03-12T15:45:46.607Z,12.30
2024-03-12T15:50:49.623Z,11.90
2024-03-12T15:55:52.106Z,11.90
2024-03-12T16:00:54.775Z,11.70
2024-03-12T16:05:57.631Z,11.60
2024-03-12T16:11:03.395Z,11.40
2024-03-12T16:16:07.145Z,11.40
2024-03-12T16:21:09.695Z,11.10
2024-03-12T16:26:12.050Z,10.60
2024-03-12T16:31:15.232Z,10.40
2024-03-12T16:36:19.268Z,10.30
2024-03-12T16:41:21.919Z,10.30
2024-03-12T16:46:24.905Z,10.20
2024-03-12T16:51:27.331Z,9.80
2024-03-12T16:56:33.677Z,9.50
2024-03-12T17:01:37.935Z,9.40
2024-03-12T17:06:46.551Z,8.80
2024-03-12T17:11:49.337Z,8.70
2024-03-12T17:16:56.773Z,8.80
2024-03-12T17:21:59.434Z,8.70
2024-03-12T17:27:05.820Z,8.60
2024-03-12T17:32:11.842Z,8.60
2024-03-12T17:37:17.013Z,8.30
2024-03-12T17:42:21.730Z,8.30
2024-03-12T17:47:25.808Z,8.30
2024-03-12T17:52:30.682Z,8.30
2024-03-12T17:57:34.511Z,8.20
2024-03-12T18:02:40.887Z,8.20
2024-03-12T18:07:48.722Z,8.10
2024-03-12T18:12:51.466Z,8.20
2024-03-12T18:17:54.287Z,9.40
2024-03-12T18:22:57.476Z,9.20
2024-03-12T18:28:00.079Z,8.90
2024-03-12T18:33:02.643Z,8.90
2024-03-12T18:38:06.771Z,9.00
2024-03-12T18:43:09.611Z,8.90
2024-03-12T18:48:12.806Z,9.00
2024-03-12T18:53:15.582Z,8.70
2024-03-12T18:58:18.821Z,8.60
2024-03-12T19:03:22.066Z,8.60
2024-03-12T19:08:26.925Z,8.80
2024-03-12T19:13:31.096Z,8.70
2024-03-12T19:18:34.794Z,8.50
2024-03-12T19:23:37.938Z,8.30
2024-03-12T19:28:44.211Z,8.10
2024-03-12T19:39:18.484Z,8.10
2024-03-12T19:44:21.192Z,7.90
2024-03-12T19:49:25.099Z,7.80
2024-03-12T19:54:28.057Z,7.60
2024-03-12T19:59:30.765Z,7.60
2024-03-12T20:04:33.302Z,7.70
2024-03-12T20:09:38.475Z,7.50
2024-03-12T20:14:41.877Z,7.20
2024-03-12T20:19:44.597Z,7.00
2024-03-12T20:24:47.280Z,6.90
2024-03-12T20:29:50.527Z,6.80
2024-03-12T20:34:53.123Z,7.00
2024-03-12T20:39:56.070Z,7.00
2024-03-12T20:44:58.461Z,7.10
2024-03-12T20:50:01.111Z,7.10
2024-03-12T20:55:05.230Z,7.30
2024-03-12T21:00:17.825Z,7.40
2024-03-12T21:05:20.729Z,7.40
2024-03-12T21:10:23.417Z,7.30
2024-03-12T21:15:26.168Z,7.40
2024-03-12T21:20:30.568Z,7.10
2024-03-12T21:25:34.921Z,7.40
2024-03-12T21:30:41.162Z,7.40
2024-03-12T21:35:43.734Z,7.40
2024-03-12T21:40:46.130Z,7.30
2024-03-12T21:45:48.795Z,7.30
2024-03-12T21:50:55.188Z,7.20
2024-03-12T21:55:57.649Z,7.30
2024-03-12T22:01:00.108Z,7.30
2024-03-12T22:06:02.664Z,7.20
2024-03-12T22:11:11.761Z,7.10
2024-03-12T22:16:19.067Z,7.10
2024-03-12T22:21:26.187Z,7.30
2024-03-12T22:26:30.219Z,7.10
2024-03-12T22:31:33.072Z,7.00
2024-03-12T22:36:35.626Z,6.90
2024-03-12T22:41:44.714Z,6.70
2024-03-12T22:46:47.447Z,6.60
2024-03-12T22:57:00.480Z,6.50
2024-03-12T23:07:08.046Z,6.10
2024-03-12T23:12:11.234Z,6.50
2024-03-12T23:17:15.883Z,6.30
2024-03-12T23:22:18.702Z,6.30
2024-03-12T23:27:21.260Z,6.00
2024-03-12T23:32:23.667Z,6.00
2024-03-12T23:37:27.307Z,5.90
2024-03-12T23:42:29.843Z,5.70
2024-03-12T23:47:32.301Z,5.70
2024-03-12T23:52:35.255Z,6.00
2024-03-12T23:57:38.295Z,5.70
